sensor_id;sensor_type;location;lat;lon;timestamp;P1;durP1;ratioP1;P2;durP2;ratioP2
18752;SDS011;9505;50.882;5.350;2023-08-01T00:01:34;12.23;;;1.77;;
18752;SDS011;9505;50.882;5.350;2023-08-01T00:04:00;8.35;;;1.30;;
18752;SDS011;9505;50.882;5.350;2023-08-01T00:06:26;6.63;;;1.20;;
18752;SDS011;9505;50.882;5.350;2023-08-01T00:08:51;14.02;;;2.00;;
18752;SDS011;9505;50.882;5.350;2023-08-01T00:11:17;18.67;;;2.65;;
18752;SDS011;9505;50.882;5.350;2023-08-01T00:13:43;5.57;;;1.17;;
18752;SDS011;9505;50.882;5.350;2023-08-01T00:16:09;8.75;;;1.50;;
18752;SDS011;9505;50.882;5.350;2023-08-01T00:18:34;12.55;;;2.08;;
18752;SDS011;9505;50.882;5.350;2023-08-01T00:21:00;18.13;;;2.78;;
18752;SDS011;9505;50.882;5.350;2023-08-01T00:23:27;10.35;;;2.00;;
18752;SDS011;9505;50.882;5.350;2023-08-01T00:25:52;13.07;;;1.90;;
18752;SDS011;9505;50.882;5.350;2023-08-01T00:28:18;11.70;;;2.08;;
18752;SDS011;9505;50.882;5.350;2023-08-01T00:30:44;8.05;;;1.50;;
18752;SDS011;9505;50.882;5.350;2023-08-01T00:33:09;12.02;;;2.22;;
18752;SDS011;9505;50.882;5.350;2023-08-01T00:35:35;8.70;;;1.75;;
18752;SDS011;9505;50.882;5.350;2023-08-01T00:38:01;5.80;;;1.60;;
18752;SDS011;9505;50.882;5.350;2023-08-01T00:40:30;12.48;;;2.20;;
18752;SDS011;9505;50.882;5.350;2023-08-01T00:42:56;15.52;;;2.53;;
18752;SDS011;9505;50.882;5.350;2023-08-01T00:45:22;10.45;;;2.00;;
18752;SDS011;9505;50.882;5.350;2023-08-01T00:47:50;13.65;;;2.45;;
18752;SDS011;9505;50.882;5.350;2023-08-01T00:50:17;14.45;;;2.53;;
18752;SDS011;9505;50.882;5.350;2023-08-01T00:52:45;16.77;;;2.72;;
18752;SDS011;9505;50.882;5.350;2023-08-01T00:55:11;8.73;;;1.90;;
18752;SDS011;9505;50.882;5.350;2023-08-01T00:57:38;13.85;;;2.60;;
18752;SDS011;9505;50.882;5.350;2023-08-01T01:00:04;15.38;;;2.75;;
18752;SDS011;9505;50.882;5.350;2023-08-01T01:02:30;11.68;;;2.42;;
18752;SDS011;9505;50.882;5.350;2023-08-01T01:04:56;12.52;;;2.80;;
18752;SDS011;9505;50.882;5.350;2023-08-01T01:07:21;12.48;;;2.60;;
18752;SDS011;9505;50.882;5.350;2023-08-01T01:09:49;16.58;;;2.58;;
18752;SDS011;9505;50.882;5.350;2023-08-01T01:12:15;10.90;;;2.47;;
18752;SDS011;9505;50.882;5.350;2023-08-01T01:14:41;19.27;;;3.25;;
18752;SDS011;9505;50.882;5.350;2023-08-01T01:17:07;12.88;;;2.80;;
18752;SDS011;9505;50.882;5.350;2023-08-01T01:19:32;15.27;;;3.15;;
18752;SDS011;9505;50.882;5.350;2023-08-01T01:21:58;15.93;;;3.08;;
18752;SDS011;9505;50.882;5.350;2023-08-01T01:24:24;14.02;;;2.70;;
18752;SDS011;9505;50.882;5.350;2023-08-01T01:26:51;12.40;;;2.92;;
18752;SDS011;9505;50.882;5.350;2023-08-01T01:29:20;10.73;;;2.58;;
18752;SDS011;9505;50.882;5.350;2023-08-01T01:31:46;12.45;;;2.42;;
18752;SDS011;9505;50.882;5.350;2023-08-01T01:34:14;12.98;;;2.85;;
18752;SDS011;9505;50.882;5.350;2023-08-01T01:36:40;12.70;;;2.90;;
18752;SDS011;9505;50.882;5.350;2023-08-01T01:39:05;15.35;;;3.20;;
18752;SDS011;9505;50.882;5.350;2023-08-01T01:41:31;14.07;;;3.45;;
18752;SDS011;9505;50.882;5.350;2023-08-01T01:43:57;12.20;;;3.03;;
18752;SDS011;9505;50.882;5.350;2023-08-01T01:46:22;17.42;;;3.35;;
18752;SDS011;9505;50.882;5.350;2023-08-01T01:48:48;12.95;;;3.60;;
18752;SDS011;9505;50.882;5.350;2023-08-01T01:51:13;13.55;;;3.70;;
18752;SDS011;9505;50.882;5.350;2023-08-01T01:53:39;17.83;;;4.68;;
18752;SDS011;9505;50.882;5.350;2023-08-01T01:56:05;14.52;;;3.80;;
18752;SDS011;9505;50.882;5.350;2023-08-01T01:58:30;15.63;;;4.20;;
18752;SDS011;9505;50.882;5.350;2023-08-01T02:00:56;20.95;;;4.00;;
18752;SDS011;9505;50.882;5.350;2023-08-01T02:03:22;13.13;;;3.70;;
18752;SDS011;9505;50.882;5.350;2023-08-01T02:05:47;24.80;;;4.35;;
18752;SDS011;9505;50.882;5.350;2023-08-01T02:08:13;14.82;;;4.13;;
18752;SDS011;9505;50.882;5.350;2023-08-01T02:10:39;16.45;;;4.70;;
18752;SDS011;9505;50.882;5.350;2023-08-01T02:13:04;15.98;;;3.92;;
18752;SDS011;9505;50.882;5.350;2023-08-01T02:15:30;12.57;;;4.47;;
18752;SDS011;9505;50.882;5.350;2023-08-01T02:17:56;18.52;;;4.93;;
18752;SDS011;9505;50.882;5.350;2023-08-01T02:20:22;17.58;;;4.78;;
18752;SDS011;9505;50.882;5.350;2023-08-01T02:22:48;16.17;;;4.60;;
18752;SDS011;9505;50.882;5.350;2023-08-01T02:25:14;15.27;;;4.32;;
18752;SDS011;9505;50.882;5.350;2023-08-01T02:27:39;20.77;;;4.70;;
18752;SDS011;9505;50.882;5.350;2023-08-01T02:30:05;21.95;;;4.75;;
18752;SDS011;9505;50.882;5.350;2023-08-01T02:32:31;21.92;;;5.40;;
18752;SDS011;9505;50.882;5.350;2023-08-01T02:34:57;17.23;;;4.88;;
18752;SDS011;9505;50.882;5.350;2023-08-01T02:37:23;14.75;;;4.78;;
18752;SDS011;9505;50.882;5.350;2023-08-01T02:39:49;18.45;;;4.90;;
18752;SDS011;9505;50.882;5.350;2023-08-01T02:42:14;17.70;;;4.53;;
18752;SDS011;9505;50.882;5.350;2023-08-01T02:44:40;17.08;;;4.50;;
18752;SDS011;9505;50.882;5.350;2023-08-01T02:47:06;21.77;;;5.57;;
18752;SDS011;9505;50.882;5.350;2023-08-01T02:49:31;21.58;;;4.95;;
18752;SDS011;9505;50.882;5.350;2023-08-01T02:51:57;33.25;;;6.25;;
18752;SDS011;9505;50.882;5.350;2023-08-01T02:54:24;16.52;;;4.95;;
18752;SDS011;9505;50.882;5.350;2023-08-01T02:56:49;18.33;;;5.18;;
18752;SDS011;9505;50.882;5.350;2023-08-01T02:59:16;20.33;;;5.40;;
18752;SDS011;9505;50.882;5.350;2023-08-01T03:01:43;18.40;;;5.40;;
18752;SDS011;9505;50.882;5.350;2023-08-01T03:04:09;27.02;;;5.70;;
18752;SDS011;9505;50.882;5.350;2023-08-01T03:06:37;18.13;;;5.25;;
18752;SDS011;9505;50.882;5.350;2023-08-01T03:09:03;17.10;;;4.95;;
18752;SDS011;9505;50.882;5.350;2023-08-01T03:11:32;22.52;;;5.32;;
18752;SDS011;9505;50.882;5.350;2023-08-01T03:14:00;19.13;;;5.25;;
18752;SDS011;9505;50.882;5.350;2023-08-01T03:16:25;12.27;;;4.45;;
18752;SDS011;9505;50.882;5.350;2023-08-01T03:18:51;21.50;;;6.07;;
18752;SDS011;9505;50.882;5.350;2023-08-01T03:21:17;24.10;;;5.60;;
18752;SDS011;9505;50.882;5.350;2023-08-01T03:23:42;16.00;;;5.28;;
18752;SDS011;9505;50.882;5.350;2023-08-01T03:26:08;23.27;;;5.82;;
18752;SDS011;9505;50.882;5.350;2023-08-01T03:28:34;20.73;;;5.18;;
18752;SDS011;9505;50.882;5.350;2023-08-01T03:30:59;21.52;;;5.65;;
18752;SDS011;9505;50.882;5.350;2023-08-01T03:33:25;20.73;;;5.07;;
18752;SDS011;9505;50.882;5.350;2023-08-01T03:35:51;14.95;;;5.10;;
18752;SDS011;9505;50.882;5.350;2023-08-01T03:38:17;19.08;;;5.70;;
18752;SDS011;9505;50.882;5.350;2023-08-01T03:40:42;19.38;;;5.45;;
18752;SDS011;9505;50.882;5.350;2023-08-01T03:43:08;15.57;;;5.20;;
18752;SDS011;9505;50.882;5.350;2023-08-01T03:45:35;32.33;;;7.22;;
18752;SDS011;9505;50.882;5.350;2023-08-01T03:48:01;26.38;;;6.32;;
18752;SDS011;9505;50.882;5.350;2023-08-01T03:50:26;13.75;;;5.30;;
18752;SDS011;9505;50.882;5.350;2023-08-01T03:52:52;19.85;;;5.60;;
18752;SDS011;9505;50.882;5.350;2023-08-01T03:55:17;26.77;;;6.00;;
18752;SDS011;9505;50.882;5.350;2023-08-01T03:57:43;31.33;;;6.00;;
18752;SDS011;9505;50.882;5.350;2023-08-01T04:00:09;25.77;;;6.03;;
18752;SDS011;9505;50.882;5.350;2023-08-01T04:02:41;23.20;;;6.30;;
18752;SDS011;9505;50.882;5.350;2023-08-01T04:05:07;28.55;;;6.28;;
18752;SDS011;9505;50.882;5.350;2023-08-01T04:07:34;19.25;;;5.63;;
18752;SDS011;9505;50.882;5.350;2023-08-01T04:10:01;25.63;;;6.30;;
18752;SDS011;9505;50.882;5.350;2023-08-01T04:12:27;25.33;;;5.65;;
18752;SDS011;9505;50.882;5.350;2023-08-01T04:14:53;15.77;;;5.70;;
18752;SDS011;9505;50.882;5.350;2023-08-01T04:17:19;22.00;;;6.43;;
18752;SDS011;9505;50.882;5.350;2023-08-01T04:19:44;35.05;;;6.88;;
18752;SDS011;9505;50.882;5.350;2023-08-01T04:22:10;19.05;;;5.75;;
18752;SDS011;9505;50.882;5.350;2023-08-01T04:24:36;23.05;;;5.95;;
18752;SDS011;9505;50.882;5.350;2023-08-01T04:27:01;19.85;;;5.78;;
18752;SDS011;9505;50.882;5.350;2023-08-01T04:29:27;26.27;;;7.25;;
18752;SDS011;9505;50.882;5.350;2023-08-01T04:31:53;20.40;;;6.50;;
18752;SDS011;9505;50.882;5.350;2023-08-01T04:34:18;22.55;;;6.00;;
18752;SDS011;9505;50.882;5.350;2023-08-01T04:36:44;21.33;;;6.40;;
18752;SDS011;9505;50.882;5.350;2023-08-01T04:39:10;23.75;;;6.60;;
18752;SDS011;9505;50.882;5.350;2023-08-01T04:41:35;25.25;;;7.50;;
18752;SDS011;9505;50.882;5.350;2023-08-01T04:44:01;25.38;;;6.43;;
18752;SDS011;9505;50.882;5.350;2023-08-01T04:46:26;25.88;;;6.75;;
18752;SDS011;9505;50.882;5.350;2023-08-01T04:48:52;22.85;;;6.40;;
18752;SDS011;9505;50.882;5.350;2023-08-01T04:51:18;25.08;;;7.72;;
18752;SDS011;9505;50.882;5.350;2023-08-01T04:53:43;24.83;;;7.35;;
18752;SDS011;9505;50.882;5.350;2023-08-01T04:56:09;25.05;;;6.85;;
18752;SDS011;9505;50.882;5.350;2023-08-01T04:58:34;25.90;;;6.70;;
18752;SDS011;9505;50.882;5.350;2023-08-01T05:01:00;27.83;;;6.53;;
18752;SDS011;9505;50.882;5.350;2023-08-01T05:03:26;23.08;;;7.20;;
18752;SDS011;9505;50.882;5.350;2023-08-01T05:05:51;36.03;;;8.00;;
18752;SDS011;9505;50.882;5.350;2023-08-01T05:08:17;32.55;;;7.40;;
18752;SDS011;9505;50.882;5.350;2023-08-01T05:10:42;25.83;;;6.20;;
18752;SDS011;9505;50.882;5.350;2023-08-01T05:13:08;26.45;;;6.75;;
18752;SDS011;9505;50.882;5.350;2023-08-01T05:15:34;22.15;;;5.97;;
18752;SDS011;9505;50.882;5.350;2023-08-01T05:17:59;24.33;;;6.72;;
18752;SDS011;9505;50.882;5.350;2023-08-01T05:20:25;21.13;;;6.15;;
18752;SDS011;9505;50.882;5.350;2023-08-01T05:22:55;29.08;;;6.88;;
18752;SDS011;9505;50.882;5.350;2023-08-01T05:25:24;22.73;;;5.60;;
18752;SDS011;9505;50.882;5.350;2023-08-01T05:27:50;43.28;;;7.45;;
18752;SDS011;9505;50.882;5.350;2023-08-01T05:30:15;23.52;;;6.10;;
18752;SDS011;9505;50.882;5.350;2023-08-01T05:32:41;31.25;;;6.80;;
18752;SDS011;9505;50.882;5.350;2023-08-01T05:35:09;14.30;;;4.97;;
18752;SDS011;9505;50.882;5.350;2023-08-01T05:37:35;20.88;;;6.15;;
18752;SDS011;9505;50.882;5.350;2023-08-01T05:40:02;25.90;;;6.45;;
18752;SDS011;9505;50.882;5.350;2023-08-01T05:42:28;23.90;;;6.18;;
18752;SDS011;9505;50.882;5.350;2023-08-01T05:44:54;18.67;;;5.80;;
18752;SDS011;9505;50.882;5.350;2023-08-01T05:47:20;23.73;;;6.20;;
18752;SDS011;9505;50.882;5.350;2023-08-01T05:49:47;15.48;;;5.43;;
18752;SDS011;9505;50.882;5.350;2023-08-01T05:52:13;23.90;;;6.53;;
18752;SDS011;9505;50.882;5.350;2023-08-01T05:54:39;21.30;;;6.72;;
18752;SDS011;9505;50.882;5.350;2023-08-01T05:57:05;28.88;;;6.30;;
18752;SDS011;9505;50.882;5.350;2023-08-01T05:59:31;23.10;;;6.72;;
18752;SDS011;9505;50.882;5.350;2023-08-01T06:01:56;23.77;;;6.18;;
18752;SDS011;9505;50.882;5.350;2023-08-01T06:04:22;26.70;;;6.78;;
18752;SDS011;9505;50.882;5.350;2023-08-01T06:06:48;21.77;;;6.70;;
18752;SDS011;9505;50.882;5.350;2023-08-01T06:09:13;25.92;;;6.65;;
18752;SDS011;9505;50.882;5.350;2023-08-01T06:11:39;19.88;;;6.43;;
18752;SDS011;9505;50.882;5.350;2023-08-01T06:14:05;29.25;;;7.25;;
18752;SDS011;9505;50.882;5.350;2023-08-01T06:16:30;26.67;;;6.70;;
18752;SDS011;9505;50.882;5.350;2023-08-01T06:18:56;19.25;;;6.13;;
18752;SDS011;9505;50.882;5.350;2023-08-01T06:21:21;30.88;;;6.57;;
18752;SDS011;9505;50.882;5.350;2023-08-01T06:23:47;23.67;;;6.53;;
18752;SDS011;9505;50.882;5.350;2023-08-01T06:26:13;30.98;;;7.03;;
18752;SDS011;9505;50.882;5.350;2023-08-01T06:28:40;23.65;;;6.93;;
18752;SDS011;9505;50.882;5.350;2023-08-01T06:31:06;26.75;;;6.78;;
18752;SDS011;9505;50.882;5.350;2023-08-01T06:33:32;21.67;;;6.40;;
18752;SDS011;9505;50.882;5.350;2023-08-01T06:35:57;35.40;;;7.78;;
18752;SDS011;9505;50.882;5.350;2023-08-01T06:38:23;26.15;;;7.50;;
18752;SDS011;9505;50.882;5.350;2023-08-01T06:40:49;28.63;;;6.50;;
18752;SDS011;9505;50.882;5.350;2023-08-01T06:43:14;28.35;;;6.78;;
18752;SDS011;9505;50.882;5.350;2023-08-01T06:45:40;24.17;;;7.22;;
18752;SDS011;9505;50.882;5.350;2023-08-01T06:48:06;31.20;;;6.90;;
18752;SDS011;9505;50.882;5.350;2023-08-01T06:50:31;34.42;;;7.30;;
18752;SDS011;9505;50.882;5.350;2023-08-01T06:52:57;29.08;;;5.90;;
18752;SDS011;9505;50.882;5.350;2023-08-01T06:55:23;30.45;;;6.70;;
18752;SDS011;9505;50.882;5.350;2023-08-01T06:57:48;24.88;;;5.65;;
18752;SDS011;9505;50.882;5.350;2023-08-01T07:00:14;21.73;;;5.40;;
18752;SDS011;9505;50.882;5.350;2023-08-01T07:02:40;22.70;;;5.57;;
18752;SDS011;9505;50.882;5.350;2023-08-01T07:05:05;20.48;;;6.43;;
18752;SDS011;9505;50.882;5.350;2023-08-01T07:07:31;23.90;;;5.82;;
18752;SDS011;9505;50.882;5.350;2023-08-01T07:09:57;23.00;;;5.85;;
18752;SDS011;9505;50.882;5.350;2023-08-01T07:12:22;25.90;;;6.22;;
18752;SDS011;9505;50.882;5.350;2023-08-01T07:14:48;33.05;;;6.50;;
18752;SDS011;9505;50.882;5.350;2023-08-01T07:17:14;25.80;;;6.45;;
18752;SDS011;9505;50.882;5.350;2023-08-01T07:19:39;21.60;;;5.88;;
18752;SDS011;9505;50.882;5.350;2023-08-01T07:22:05;29.55;;;6.95;;
18752;SDS011;9505;50.882;5.350;2023-08-01T07:24:30;20.42;;;5.60;;
18752;SDS011;9505;50.882;5.350;2023-08-01T07:26:56;27.75;;;6.18;;
18752;SDS011;9505;50.882;5.350;2023-08-01T07:29:22;17.42;;;5.30;;
18752;SDS011;9505;50.882;5.350;2023-08-01T07:31:47;18.00;;;4.88;;
18752;SDS011;9505;50.882;5.350;2023-08-01T07:34:13;32.80;;;6.80;;
18752;SDS011;9505;50.882;5.350;2023-08-01T07:36:39;26.95;;;5.28;;
18752;SDS011;9505;50.882;5.350;2023-08-01T07:39:04;13.50;;;4.40;;
18752;SDS011;9505;50.882;5.350;2023-08-01T07:41:30;25.05;;;5.65;;
18752;SDS011;9505;50.882;5.350;2023-08-01T07:43:55;26.88;;;5.88;;
18752;SDS011;9505;50.882;5.350;2023-08-01T07:46:21;17.25;;;5.18;;
18752;SDS011;9505;50.882;5.350;2023-08-01T07:48:47;22.95;;;5.03;;
18752;SDS011;9505;50.882;5.350;2023-08-01T07:51:14;21.33;;;4.95;;
18752;SDS011;9505;50.882;5.350;2023-08-01T07:53:39;19.88;;;4.82;;
18752;SDS011;9505;50.882;5.350;2023-08-01T07:56:05;26.98;;;5.60;;
18752;SDS011;9505;50.882;5.350;2023-08-01T07:58:33;23.48;;;5.60;;
18752;SDS011;9505;50.882;5.350;2023-08-01T08:01:02;24.05;;;5.57;;
18752;SDS011;9505;50.882;5.350;2023-08-01T08:03:29;11.88;;;4.03;;
18752;SDS011;9505;50.882;5.350;2023-08-01T08:05:55;18.92;;;4.97;;
18752;SDS011;9505;50.882;5.350;2023-08-01T08:08:21;16.85;;;4.65;;
18752;SDS011;9505;50.882;5.350;2023-08-01T08:10:46;23.80;;;5.40;;
18752;SDS011;9505;50.882;5.350;2023-08-01T08:13:12;23.38;;;6.05;;
18752;SDS011;9505;50.882;5.350;2023-08-01T08:15:37;24.83;;;5.57;;
18752;SDS011;9505;50.882;5.350;2023-08-01T08:18:03;21.10;;;5.22;;
18752;SDS011;9505;50.882;5.350;2023-08-01T08:20:34;22.08;;;5.90;;
18752;SDS011;9505;50.882;5.350;2023-08-01T08:23:06;23.77;;;5.38;;
18752;SDS011;9505;50.882;5.350;2023-08-01T08:25:32;21.90;;;5.57;;
18752;SDS011;9505;50.882;5.350;2023-08-01T08:27:58;16.75;;;4.97;;
18752;SDS011;9505;50.882;5.350;2023-08-01T08:30:24;32.88;;;6.43;;
18752;SDS011;9505;50.882;5.350;2023-08-01T08:32:50;23.08;;;5.43;;
18752;SDS011;9505;50.882;5.350;2023-08-01T08:35:15;18.17;;;4.72;;
18752;SDS011;9505;50.882;5.350;2023-08-01T08:37:41;25.65;;;5.25;;
18752;SDS011;9505;50.882;5.350;2023-08-01T08:40:07;14.38;;;4.72;;
18752;SDS011;9505;50.882;5.350;2023-08-01T08:42:33;17.40;;;4.45;;
18752;SDS011;9505;50.882;5.350;2023-08-01T08:45:01;17.02;;;4.35;;
18752;SDS011;9505;50.882;5.350;2023-08-01T08:47:27;23.92;;;4.90;;
18752;SDS011;9505;50.882;5.350;2023-08-01T08:49:56;17.73;;;4.80;;
18752;SDS011;9505;50.882;5.350;2023-08-01T08:52:25;22.05;;;4.45;;
18752;SDS011;9505;50.882;5.350;2023-08-01T08:54:51;22.25;;;4.57;;
18752;SDS011;9505;50.882;5.350;2023-08-01T08:57:18;16.70;;;4.35;;
18752;SDS011;9505;50.882;5.350;2023-08-01T08:59:46;27.23;;;4.93;;
18752;SDS011;9505;50.882;5.350;2023-08-01T09:02:12;19.42;;;4.20;;
18752;SDS011;9505;50.882;5.350;2023-08-01T09:04:40;22.77;;;4.40;;
18752;SDS011;9505;50.882;5.350;2023-08-01T09:07:07;19.63;;;4.45;;
18752;SDS011;9505;50.882;5.350;2023-08-01T09:09:35;18.85;;;4.35;;
18752;SDS011;9505;50.882;5.350;2023-08-01T09:12:01;26.05;;;4.70;;
18752;SDS011;9505;50.882;5.350;2023-08-01T09:14:28;13.55;;;3.83;;
18752;SDS011;9505;50.882;5.350;2023-08-01T09:16:54;20.52;;;4.22;;
18752;SDS011;9505;50.882;5.350;2023-08-01T09:19:21;14.00;;;3.80;;
18752;SDS011;9505;50.882;5.350;2023-08-01T09:21:48;21.08;;;4.72;;
18752;SDS011;9505;50.882;5.350;2023-08-01T09:24:16;21.30;;;3.92;;
18752;SDS011;9505;50.882;5.350;2023-08-01T09:26:43;17.30;;;3.97;;
18752;SDS011;9505;50.882;5.350;2023-08-01T09:29:10;22.55;;;4.28;;
18752;SDS011;9505;50.882;5.350;2023-08-01T09:31:37;25.70;;;4.82;;
18752;SDS011;9505;50.882;5.350;2023-08-01T09:34:05;15.90;;;3.30;;
18752;SDS011;9505;50.882;5.350;2023-08-01T09:36:42;20.42;;;3.95;;
18752;SDS011;9505;50.882;5.350;2023-08-01T09:39:08;19.40;;;3.80;;
18752;SDS011;9505;50.882;5.350;2023-08-01T09:41:33;20.05;;;3.75;;
18752;SDS011;9505;50.882;5.350;2023-08-01T09:43:59;16.45;;;3.38;;
18752;SDS011;9505;50.882;5.350;2023-08-01T09:46:25;23.05;;;3.63;;
18752;SDS011;9505;50.882;5.350;2023-08-01T09:48:50;26.00;;;3.85;;
18752;SDS011;9505;50.882;5.350;2023-08-01T09:51:17;14.10;;;2.80;;
18752;SDS011;9505;50.882;5.350;2023-08-01T09:56:15;14.50;;;3.15;;
18752;SDS011;9505;50.882;5.350;2023-08-01T09:58:43;21.30;;;3.67;;
18752;SDS011;9505;50.882;5.350;2023-08-01T10:01:11;19.17;;;3.47;;
18752;SDS011;9505;50.882;5.350;2023-08-01T10:03:44;17.73;;;3.38;;
18752;SDS011;9505;50.882;5.350;2023-08-01T10:06:14;13.18;;;2.60;;
18752;SDS011;9505;50.882;5.350;2023-08-01T10:08:44;21.08;;;3.55;;
18752;SDS011;9505;50.882;5.350;2023-08-01T10:11:11;21.45;;;3.78;;
18752;SDS011;9505;50.882;5.350;2023-08-01T10:13:39;20.58;;;3.80;;
18752;SDS011;9505;50.882;5.350;2023-08-01T10:16:12;18.73;;;3.30;;
18752;SDS011;9505;50.882;5.350;2023-08-01T10:18:39;17.98;;;3.35;;
18752;SDS011;9505;50.882;5.350;2023-08-01T10:21:06;27.60;;;4.30;;
18752;SDS011;9505;50.882;5.350;2023-08-01T10:23:33;13.95;;;2.65;;
18752;SDS011;9505;50.882;5.350;2023-08-01T10:26:00;14.20;;;3.10;;
18752;SDS011;9505;50.882;5.350;2023-08-01T10:28:37;24.30;;;3.50;;
18752;SDS011;9505;50.882;5.350;2023-08-01T10:33:38;24.63;;;3.30;;
18752;SDS011;9505;50.882;5.350;2023-08-01T10:36:18;11.32;;;2.50;;
18752;SDS011;9505;50.882;5.350;2023-08-01T10:43:52;18.52;;;2.95;;
18752;SDS011;9505;50.882;5.350;2023-08-01T10:46:29;16.05;;;2.70;;
18752;SDS011;9505;50.882;5.350;2023-08-01T10:49:09;24.80;;;3.03;;
18752;SDS011;9505;50.882;5.350;2023-08-01T10:51:35;21.02;;;2.90;;
18752;SDS011;9505;50.882;5.350;2023-08-01T10:54:01;14.00;;;2.47;;
18752;SDS011;9505;50.882;5.350;2023-08-01T10:56:26;5.80;;;1.98;;
18752;SDS011;9505;50.882;5.350;2023-08-01T10:58:54;15.80;;;2.45;;
18752;SDS011;9505;50.882;5.350;2023-08-01T11:01:19;12.27;;;2.40;;
18752;SDS011;9505;50.882;5.350;2023-08-01T11:03:45;21.73;;;2.90;;
18752;SDS011;9505;50.882;5.350;2023-08-01T11:06:11;15.50;;;3.00;;
18752;SDS011;9505;50.882;5.350;2023-08-01T11:08:37;18.58;;;2.97;;
18752;SDS011;9505;50.882;5.350;2023-08-01T11:11:08;23.60;;;3.58;;
18752;SDS011;9505;50.882;5.350;2023-08-01T11:13:36;25.95;;;3.65;;
18752;SDS011;9505;50.882;5.350;2023-08-01T11:16:05;22.02;;;3.63;;
18752;SDS011;9505;50.882;5.350;2023-08-01T11:18:43;17.00;;;2.88;;
18752;SDS011;9505;50.882;5.350;2023-08-01T11:21:09;21.25;;;3.13;;
18752;SDS011;9505;50.882;5.350;2023-08-01T11:23:35;13.55;;;2.60;;
18752;SDS011;9505;50.882;5.350;2023-08-01T11:26:07;20.00;;;3.38;;
18752;SDS011;9505;50.882;5.350;2023-08-01T11:28:33;21.55;;;2.92;;
18752;SDS011;9505;50.882;5.350;2023-08-01T11:30:59;22.10;;;3.65;;
18752;SDS011;9505;50.882;5.350;2023-08-01T11:33:25;22.15;;;3.67;;
18752;SDS011;9505;50.882;5.350;2023-08-01T11:35:54;21.77;;;3.13;;
18752;SDS011;9505;50.882;5.350;2023-08-01T11:38:22;24.55;;;3.22;;
18752;SDS011;9505;50.882;5.350;2023-08-01T11:40:49;28.48;;;3.67;;
18752;SDS011;9505;50.882;5.350;2023-08-01T11:43:16;19.70;;;3.25;;
18752;SDS011;9505;50.882;5.350;2023-08-01T11:45:55;21.70;;;3.25;;
18752;SDS011;9505;50.882;5.350;2023-08-01T11:48:24;18.40;;;3.45;;
18752;SDS011;9505;50.882;5.350;2023-08-01T11:50:56;21.80;;;3.35;;
18752;SDS011;9505;50.882;5.350;2023-08-01T11:53:23;15.57;;;3.25;;
18752;SDS011;9505;50.882;5.350;2023-08-01T11:55:49;17.55;;;2.85;;
18752;SDS011;9505;50.882;5.350;2023-08-01T11:58:27;17.08;;;3.65;;
18752;SDS011;9505;50.882;5.350;2023-08-01T12:03:31;16.45;;;2.92;;
18752;SDS011;9505;50.882;5.350;2023-08-01T12:06:06;15.65;;;2.50;;
18752;SDS011;9505;50.882;5.350;2023-08-01T12:08:33;16.95;;;2.70;;
18752;SDS011;9505;50.882;5.350;2023-08-01T12:10:59;20.13;;;3.35;;
18752;SDS011;9505;50.882;5.350;2023-08-01T12:13:25;15.57;;;2.47;;
18752;SDS011;9505;50.882;5.350;2023-08-01T12:15:52;16.80;;;3.03;;
18752;SDS011;9505;50.882;5.350;2023-08-01T12:18:21;14.20;;;2.72;;
18752;SDS011;9505;50.882;5.350;2023-08-01T12:20:52;21.58;;;3.17;;
18752;SDS011;9505;50.882;5.350;2023-08-01T12:23:17;14.93;;;2.70;;
18752;SDS011;9505;50.882;5.350;2023-08-01T12:25:44;10.93;;;2.22;;
18752;SDS011;9505;50.882;5.350;2023-08-01T12:28:11;27.88;;;3.38;;
18752;SDS011;9505;50.882;5.350;2023-08-01T12:30:41;55.00;;;5.68;;
18752;SDS011;9505;50.882;5.350;2023-08-01T12:33:08;20.42;;;2.92;;
18752;SDS011;9505;50.882;5.350;2023-08-01T12:35:38;22.95;;;2.47;;
18752;SDS011;9505;50.882;5.350;2023-08-01T12:38:04;20.25;;;3.35;;
18752;SDS011;9505;50.882;5.350;2023-08-01T12:40:30;16.65;;;2.70;;
18752;SDS011;9505;50.882;5.350;2023-08-01T12:42:56;22.48;;;3.50;;
18752;SDS011;9505;50.882;5.350;2023-08-01T12:45:21;19.58;;;2.75;;
18752;SDS011;9505;50.882;5.350;2023-08-01T12:47:48;13.23;;;2.40;;
18752;SDS011;9505;50.882;5.350;2023-08-01T12:50:14;18.70;;;3.30;;
18752;SDS011;9505;50.882;5.350;2023-08-01T12:52:39;20.05;;;2.90;;
18752;SDS011;9505;50.882;5.350;2023-08-01T12:55:05;23.77;;;3.22;;
18752;SDS011;9505;50.882;5.350;2023-08-01T12:57:31;20.20;;;3.72;;
18752;SDS011;9505;50.882;5.350;2023-08-01T12:59:57;16.90;;;2.47;;
18752;SDS011;9505;50.882;5.350;2023-08-01T13:02:22;13.27;;;2.33;;
18752;SDS011;9505;50.882;5.350;2023-08-01T13:04:48;13.23;;;2.30;;
18752;SDS011;9505;50.882;5.350;2023-08-01T13:07:13;16.33;;;2.85;;
18752;SDS011;9505;50.882;5.350;2023-08-01T13:09:39;21.10;;;3.28;;
18752;SDS011;9505;50.882;5.350;2023-08-01T13:12:05;18.80;;;2.78;;
18752;SDS011;9505;50.882;5.350;2023-08-01T13:14:31;14.27;;;2.67;;
18752;SDS011;9505;50.882;5.350;2023-08-01T13:16:57;24.63;;;3.47;;
18752;SDS011;9505;50.882;5.350;2023-08-01T13:19:24;19.50;;;3.10;;
18752;SDS011;9505;50.882;5.350;2023-08-01T13:21:50;15.75;;;2.50;;
18752;SDS011;9505;50.882;5.350;2023-08-01T13:24:16;14.95;;;2.80;;
18752;SDS011;9505;50.882;5.350;2023-08-01T13:26:41;18.75;;;3.05;;
18752;SDS011;9505;50.882;5.350;2023-08-01T13:29:07;18.38;;;2.78;;
18752;SDS011;9505;50.882;5.350;2023-08-01T13:31:32;22.88;;;3.45;;
18752;SDS011;9505;50.882;5.350;2023-08-01T13:33:58;18.08;;;2.80;;
18752;SDS011;9505;50.882;5.350;2023-08-01T13:36:24;23.45;;;3.22;;
18752;SDS011;9505;50.882;5.350;2023-08-01T13:38:50;18.40;;;3.25;;
18752;SDS011;9505;50.882;5.350;2023-08-01T13:41:16;28.20;;;3.53;;
18752;SDS011;9505;50.882;5.350;2023-08-01T13:43:41;21.13;;;2.65;;
18752;SDS011;9505;50.882;5.350;2023-08-01T13:46:14;26.45;;;3.10;;
18752;SDS011;9505;50.882;5.350;2023-08-01T13:48:41;14.30;;;2.40;;
18752;SDS011;9505;50.882;5.350;2023-08-01T13:51:07;15.80;;;2.22;;
18752;SDS011;9505;50.882;5.350;2023-08-01T13:53:33;14.43;;;2.20;;
18752;SDS011;9505;50.882;5.350;2023-08-01T13:55:59;19.67;;;3.08;;
18752;SDS011;9505;50.882;5.350;2023-08-01T13:58:25;16.50;;;2.58;;
18752;SDS011;9505;50.882;5.350;2023-08-01T14:00:50;22.90;;;3.33;;
18752;SDS011;9505;50.882;5.350;2023-08-01T14:03:16;7.57;;;1.60;;
18752;SDS011;9505;50.882;5.350;2023-08-01T14:05:42;16.83;;;3.08;;
18752;SDS011;9505;50.882;5.350;2023-08-01T14:08:07;22.42;;;3.13;;
18752;SDS011;9505;50.882;5.350;2023-08-01T14:10:33;17.38;;;2.33;;
18752;SDS011;9505;50.882;5.350;2023-08-01T14:12:58;15.00;;;2.40;;
18752;SDS011;9505;50.882;5.350;2023-08-01T14:15:24;17.08;;;2.53;;
18752;SDS011;9505;50.882;5.350;2023-08-01T14:17:50;21.67;;;2.75;;
18752;SDS011;9505;50.882;5.350;2023-08-01T14:20:17;16.73;;;2.45;;
18752;SDS011;9505;50.882;5.350;2023-08-01T14:22:43;15.25;;;2.38;;
18752;SDS011;9505;50.882;5.350;2023-08-01T14:25:08;15.13;;;2.35;;
18752;SDS011;9505;50.882;5.350;2023-08-01T14:27:34;11.25;;;1.98;;
18752;SDS011;9505;50.882;5.350;2023-08-01T14:30:00;14.88;;;2.20;;
18752;SDS011;9505;50.882;5.350;2023-08-01T14:32:27;12.40;;;1.85;;
18752;SDS011;9505;50.882;5.350;2023-08-01T14:34:53;16.13;;;2.22;;
18752;SDS011;9505;50.882;5.350;2023-08-01T14:37:19;10.32;;;1.70;;
18752;SDS011;9505;50.882;5.350;2023-08-01T14:39:48;18.60;;;2.72;;
18752;SDS011;9505;50.882;5.350;2023-08-01T14:42:15;18.10;;;2.15;;
18752;SDS011;9505;50.882;5.350;2023-08-01T14:44:41;13.57;;;2.08;;
18752;SDS011;9505;50.882;5.350;2023-08-01T14:47:06;21.40;;;3.03;;
18752;SDS011;9505;50.882;5.350;2023-08-01T14:49:32;13.57;;;2.08;;
18752;SDS011;9505;50.882;5.350;2023-08-01T14:51:58;11.10;;;2.05;;
18752;SDS011;9505;50.882;5.350;2023-08-01T14:54:24;14.05;;;1.90;;
18752;SDS011;9505;50.882;5.350;2023-08-01T14:56:52;24.05;;;3.63;;